Observations for FARNBOROUGH, United Kingdom (EGLF)

EGLF 130850Z 08012KT CAVOK 02/00 Q1016  
EGLF 130820Z 08012KT 9999 FEW023 01/00 Q1015
EGLF 130750Z 08010KT 9999 FEW022 01/M01 Q1015   
EGLF 130720Z 08011KT 9999 FEW022 01/M01 Q1015   
EGLF 130650Z 08012KT 9999 FEW020 01/M01 Q1015   
EGLF 122020Z 08014KT CAVOK 02/M02 Q1018 
EGLF 121950Z 09010KT CAVOK 01/M02 Q1018 
EGLF 121920Z 10009KT 9999 FEW036 02/M02 Q1019   
EGLF 121850Z 11008KT 9999 SCT036 03/M02 Q1019   
EGLF 121820Z 11007KT 9999 FEW035 03/M02 Q1019   
EGLF 121750Z 10008KT 9999 FEW035 03/M02 Q1020   
EGLF 121720Z 10006KT 9999 FEW038 03/M02 Q1020   
EGLF 121650Z 11007KT 9999 FEW038 04/M02 Q1020   
EGLF 121620Z 11009KT 9999 FEW038 04/M01 Q1020   
EGLF 121550Z 11008KT 9999 FEW033 04/M01 Q1020   
EGLF 121520Z 12011KT 9999 FEW031 05/M01 Q1020   
EGLF 121450Z 11014KT 9999 SCT030 06/00 Q1020
EGLF 121420Z 13010KT 9999 SCT028 06/00 Q1020
EGLF 121350Z 12011KT 9999 BKN026 06/01 Q1021
EGLF 121320Z 12011KT 080V150 9999 BKN029 07/01 Q1021
EGLF 121250Z 12009KT 9999 FEW028 BKN032 07/02 Q1021 
EGLF 121220Z 14010KT 110V170 9999 SCT027 BKN030 07/02 Q1021 
EGLF 121150Z 16010KT 9999 SCT024 BKN035 07/03 Q1022 
EGLF 121120Z 15008KT 120V180 9999 SCT038 BKN043 07/03 Q1022 
EGLF 121050Z 13009KT 100V160 9999 FEW018 BKN031 07/04 Q1022 
EGLF 121020Z 12009KT 090V150 9999 FEW018 BKN029 07/04 Q1022 
EGLF 120950Z 12007KT 9999 FEW018 BKN029 07/05 Q1022 
EGLF 120920Z 11009KT 9999 FEW019 BKN033 06/05 Q1022 
EGLF 120850Z 10007KT 9999 FEW019 SCT037 06/05 Q1022 
EGLF 120820Z 11006KT 9999 FEW043 06/04 Q1022